createdAt,value
2019-06-20T00:00:49.452Z,23.00
2019-06-20T00:03:18.991Z,23.00
2019-06-20T00:05:48.623Z,22.90
2019-06-20T00:08:18.094Z,22.90
2019-06-20T00:10:47.709Z,22.80
2019-06-20T00:13:17.244Z,22.80
2019-06-20T00:15:47.025Z,22.80
2019-06-20T00:18:17.858Z,22.80
2019-06-20T00:20:47.373Z,22.80
2019-06-20T00:23:16.804Z,22.80
2019-06-20T00:25:46.273Z,22.80
2019-06-20T00:28:15.771Z,22.80
2019-06-20T00:30:45.261Z,22.90
2019-06-20T00:33:14.812Z,22.90
2019-06-20T00:35:44.405Z,23.00
2019-06-20T00:38:13.873Z,23.00
2019-06-20T00:40:43.363Z,22.90
2019-06-20T00:43:17.670Z,22.90
2019-06-20T00:45:45.231Z,22.80
2019-06-20T00:48:14.797Z,22.80
2019-06-20T00:50:44.468Z,22.70
2019-06-20T00:53:13.961Z,22.70
2019-06-20T00:55:43.431Z,22.70
2019-06-20T00:58:12.982Z,22.60
2019-06-20T01:00:42.643Z,22.60
2019-06-20T01:03:12.123Z,22.60
2019-06-20T01:05:41.633Z,22.60
2019-06-20T01:08:11.069Z,22.50
2019-06-20T01:10:40.581Z,22.50
2019-06-20T01:13:10.131Z,22.50
2019-06-20T01:15:39.613Z,22.50
2019-06-20T01:18:09.052Z,22.40
2019-06-20T01:20:38.544Z,22.40
2019-06-20T01:23:08.011Z,22.40
2019-06-20T01:25:40.375Z,22.40
2019-06-20T01:28:10.155Z,22.30
2019-06-20T01:30:39.637Z,22.30
2019-06-20T01:33:09.094Z,22.40
2019-06-20T01:35:38.555Z,22.40
2019-06-20T01:38:08.033Z,22.50
2019-06-20T01:40:37.501Z,22.50
2019-06-20T01:43:07.127Z,22.50
2019-06-20T01:45:37.111Z,22.60
2019-06-20T01:48:06.654Z,22.60
2019-06-20T01:50:36.190Z,22.50
2019-06-20T01:53:05.756Z,22.50
2019-06-20T01:55:35.228Z,22.50
2019-06-20T01:58:04.979Z,22.50
2019-06-20T02:00:51.251Z,22.50
2019-06-20T02:03:21.314Z,22.60
2019-06-20T02:05:51.178Z,22.60
2019-06-20T02:08:20.763Z,22.60
2019-06-20T02:10:50.280Z,22.60
2019-06-20T02:13:19.708Z,22.60
2019-06-20T02:15:49.269Z,22.60
2019-06-20T02:18:18.910Z,22.60
2019-06-20T02:20:53.667Z,22.60
2019-06-20T02:23:23.429Z,22.60
2019-06-20T02:25:52.971Z,22.60
2019-06-20T02:28:23.090Z,22.60
2019-06-20T02:30:52.740Z,22.60
2019-06-20T02:33:22.257Z,22.60
2019-06-20T02:35:51.761Z,22.60
2019-06-20T02:38:21.363Z,22.50
2019-06-20T02:40:50.839Z,22.40
2019-06-20T02:43:20.285Z,22.40
2019-06-20T02:45:49.838Z,22.40
2019-06-20T02:48:19.396Z,22.30
2019-06-20T02:50:48.927Z,22.30
2019-06-20T02:53:18.421Z,22.30
2019-06-20T02:55:48.055Z,22.30
2019-06-20T02:58:17.534Z,22.30
2019-06-20T03:00:59.614Z,22.40
2019-06-20T03:03:29.652Z,22.50
2019-06-20T03:05:59.354Z,22.50
2019-06-20T03:08:28.976Z,22.40
2019-06-20T03:10:58.559Z,22.50
2019-06-20T03:13:28.373Z,22.50
2019-06-20T03:15:57.957Z,22.50
2019-06-20T03:18:28.470Z,22.60
2019-06-20T03:20:59.399Z,22.60
2019-06-20T03:23:28.843Z,22.70
2019-06-20T03:25:58.320Z,22.70
2019-06-20T03:28:27.773Z,22.70
2019-06-20T03:30:57.266Z,22.70
2019-06-20T03:33:26.712Z,22.70
2019-06-20T03:35:56.199Z,22.70
2019-06-20T03:38:25.679Z,22.70
2019-06-20T03:40:55.147Z,22.70
2019-06-20T03:43:24.604Z,22.70
2019-06-20T03:45:55.230Z,22.80
2019-06-20T03:48:24.678Z,22.80
2019-06-20T03:50:54.230Z,22.80
2019-06-20T03:53:23.716Z,22.80
2019-06-20T03:55:53.255Z,22.90
2019-06-20T03:58:23.068Z,23.00
2019-06-20T04:00:52.536Z,23.00
2019-06-20T04:03:22.138Z,23.00
2019-06-20T04:05:51.585Z,23.10
2019-06-20T04:08:21.061Z,23.10
2019-06-20T04:10:50.591Z,23.10
2019-06-20T04:13:21.598Z,23.20
2019-06-20T04:15:51.087Z,23.30
2019-06-20T04:18:20.651Z,23.30
2019-06-20T04:20:50.266Z,23.30
2019-06-20T04:23:19.756Z,23.30
2019-06-20T04:25:49.203Z,23.40
2019-06-20T04:28:18.702Z,23.40
2019-06-20T04:30:48.148Z,23.50
2019-06-20T04:33:17.666Z,23.60
2019-06-20T04:35:47.120Z,23.70
2019-06-20T04:38:16.589Z,23.70
2019-06-20T04:40:50.501Z,23.70
2019-06-20T04:43:21.090Z,23.80
2019-06-20T04:45:54.976Z,24.00
2019-06-20T04:48:24.462Z,24.10
2019-06-20T04:50:53.918Z,24.10
